LTAF/ADA METAR and TAF weather

Enter ICAO airport designator
Station Type Date Time Source
LTAF METAR 2023/12/03 17:20 UTC NOAA

LTAF 031720Z 02004KT 3500 BR NSC 16/10 Q1020 NOSIG


Station Type Date Time Source
LTAF Decoded METAR 2023/12/03 17:20 UTC NOAA

Adana / Sakirpasa, Turkey (LTAF) 36-59N 035-18E 20M
Dec 03, 2023 - 12:20 PM EST / 2023.12.03 1720 UTC
Wind: from the NNE (020 degrees) at 5 MPH (4 KT):0
Visibility: 2 mile(s):0
Weather: mist
Temperature: 60 F (16 C)
Dew Point: 50 F (10 C)
Relative Humidity: 67%
Pressure (altimeter): 30.12 in. Hg (1020 hPa)
ob: LTAF 031720Z 02004KT 3500 BR NSC 16/10 Q1020 NOSIG
cycle: 17

Station Type Date Time Source
LTAF TAF 2023/12/03 18:01 UTC NOAA

TAF LTAF 031640Z 0318/0418 VRB02KT 4000 BR NSC
BECMG 0319/0321 CAVOK PROB40
TEMPO 0416/0418 4000 BR

Example: see airport list